Time;durP1;ratioP1;P1;durP2;ratioP2;P2;SDS_P1;SDS_P2;PMS_P1;PMS_P2;Temp;Humidity;BMP_temperature;BMP_pressure;BME280_temperature;BME280_humidity;BME280_pressure;Samples;Min_cycle;Max_cycle;Signal;HPM_P1;HPM_P2
2021/12/09 00:01:05;;;;;;;12.55;4.60;;;;;;;;;;5005598;28;20055;-77
2021/12/09 00:03:34;;;;;;;12.35;4.38;;;;;;;;;;5012850;28;20393;-76
2021/12/09 00:06:00;;;;;;;8.10;3.95;;;;;;;;;;5013511;28;20022;-77
2021/12/09 00:08:28;;;;;;;11.35;3.63;;;;;;;;;;5008326;28;20029;-76
2021/12/09 00:10:55;;;;;;;12.65;3.70;;;;;;;;;;5016736;28;20056;-76
2021/12/09 00:13:22;;;;;;;13.10;3.85;;;;;;;;;;5002070;28;20041;-76
2021/12/09 00:15:48;;;;;;;8.98;3.95;;;;;;;;;;4999190;28;20042;-75
2021/12/09 00:18:14;;;;;;;12.00;3.78;;;;;;;;;;5008247;28;20029;-77
2021/12/09 00:20:41;;;;;;;12.90;3.97;;;;;;;;;;5007945;28;20115;-75
2021/12/09 00:23:07;;;;;;;16.92;4.75;;;;;;;;;;5009435;28;20031;-76
2021/12/09 00:25:34;;;;;;;8.25;3.40;;;;;;;;;;5012656;28;20477;-78
2021/12/09 00:28:00;;;;;;;10.70;3.53;;;;;;;;;;4998782;28;20038;-76
2021/12/09 00:30:26;;;;;;;16.08;3.63;;;;;;;;;;5016277;28;20556;-77
2021/12/09 00:32:52;;;;;;;12.25;3.50;;;;;;;;;;5006229;28;20089;-76
2021/12/09 00:35:19;;;;;;;7.63;3.88;;;;;;;;;;4996480;28;20061;-76
2021/12/09 00:38:00;;;;;;;10.35;4.72;;;;;;;;;;5012439;28;20396;-77
2021/12/09 00:40:26;;;;;;;9.00;5.95;;;;;;;;;;5013398;28;20022;-77
2021/12/09 00:42:52;;;;;;;10.48;4.70;;;;;;;;;;5015834;28;20473;-77
2021/12/09 00:45:18;;;;;;;10.07;3.28;;;;;;;;;;5009137;28;20100;-77
2021/12/09 00:47:45;;;;;;;8.63;3.13;;;;;;;;;;5014894;28;20380;-76
2021/12/09 00:50:11;;;;;;;7.90;2.95;;;;;;;;;;5000910;28;20103;-76
2021/12/09 00:52:37;;;;;;;7.10;3.40;;;;;;;;;;5015754;28;20030;-76
2021/12/09 00:55:04;;;;;;;9.10;2.92;;;;;;;;;;5007439;28;20057;-76
2021/12/09 00:57:30;;;;;;;4.18;2.55;;;;;;;;;;4997454;28;20030;-74
2021/12/09 00:59:58;;;;;;;8.88;2.70;;;;;;;;;;5015138;28;20031;-77
2021/12/09 01:02:25;;;;;;;4.60;2.38;;;;;;;;;;5009345;28;20022;-77
2021/12/09 01:04:51;;;;;;;8.57;2.75;;;;;;;;;;4996558;28;20037;-74
2021/12/09 01:07:17;;;;;;;12.50;3.17;;;;;;;;;;5010114;28;20100;-77
2021/12/09 01:09:43;;;;;;;13.85;2.92;;;;;;;;;;5012683;28;20033;-78
2021/12/09 01:12:09;;;;;;;8.88;3.83;;;;;;;;;;5001872;28;20105;-75
2021/12/09 01:14:39;;;;;;;9.82;2.70;;;;;;;;;;5008953;28;20018;-77
2021/12/09 01:17:06;;;;;;;6.93;2.75;;;;;;;;;;4996355;28;20118;-77
2021/12/09 01:19:33;;;;;;;7.63;2.78;;;;;;;;;;4997903;28;20484;-76
2021/12/09 01:21:59;;;;;;;6.60;2.70;;;;;;;;;;4996724;28;20400;-74
2021/12/09 01:24:25;;;;;;;10.10;2.92;;;;;;;;;;4995758;28;20392;-76
2021/12/09 01:26:51;;;;;;;6.20;2.50;;;;;;;;;;5012540;28;20104;-78
2021/12/09 01:29:21;;;;;;;8.77;4.30;;;;;;;;;;5001864;28;20034;-77
2021/12/09 01:32:00;;;;;;;13.40;3.22;;;;;;;;;;5007067;28;20044;-78
2021/12/09 01:34:27;;;;;;;10.20;3.13;;;;;;;;;;5015303;28;20030;-76
2021/12/09 01:36:53;;;;;;;8.68;2.97;;;;;;;;;;5011040;28;20088;-77
2021/12/09 01:39:20;;;;;;;7.38;2.60;;;;;;;;;;5001665;28;20038;-78
2021/12/09 01:41:47;;;;;;;12.30;2.95;;;;;;;;;;5013124;28;20022;-77
2021/12/09 01:44:13;;;;;;;6.85;2.63;;;;;;;;;;5015527;28;20030;-76
2021/12/09 01:46:39;;;;;;;6.18;2.70;;;;;;;;;;5007712;28;20026;-78
2021/12/09 01:49:06;;;;;;;9.02;4.88;;;;;;;;;;5008379;28;20034;-77
2021/12/09 01:51:32;;;;;;;6.65;3.03;;;;;;;;;;5015023;28;20044;-77
2021/12/09 01:53:58;;;;;;;7.40;2.63;;;;;;;;;;4999182;28;20029;-77
2021/12/09 01:56:25;;;;;;;8.60;2.90;;;;;;;;;;5009093;28;20030;-79
2021/12/09 01:58:59;;;;;;;5.18;2.72;;;;;;;;;;5006061;28;20480;-77
2021/12/09 02:01:25;;;;;;;7.63;3.13;;;;;;;;;;5015206;28;20029;-77
2021/12/09 02:03:52;;;;;;;6.70;2.58;;;;;;;;;;5013969;28;20522;-77
2021/12/09 02:06:19;;;;;;;7.43;2.95;;;;;;;;;;5013917;28;20037;-78
2021/12/09 02:08:46;;;;;;;7.57;2.90;;;;;;;;;;5001312;28;20030;-77
2021/12/09 02:11:12;;;;;;;4.80;2.60;;;;;;;;;;5008427;28;20034;-77
2021/12/09 02:13:38;;;;;;;10.07;3.80;;;;;;;;;;5002674;28;20032;-77
2021/12/09 02:16:04;;;;;;;9.68;2.85;;;;;;;;;;5009488;28;20455;-75
2021/12/09 02:18:31;;;;;;;16.02;3.75;;;;;;;;;;5013636;28;20041;-77
2021/12/09 02:21:23;;;;;;;9.77;2.70;;;;;;;;;;5013692;28;20026;-76
2021/12/09 02:23:50;;;;;;;5.13;2.63;;;;;;;;;;4994698;28;20481;-77
2021/12/09 02:26:18;;;;;;;7.60;2.38;;;;;;;;;;5009057;28;20080;-76
2021/12/09 02:28:44;;;;;;;7.53;3.20;;;;;;;;;;5004026;28;20476;-76
2021/12/09 02:31:11;;;;;;;6.55;2.70;;;;;;;;;;5005313;28;20034;-75
2021/12/09 02:33:37;;;;;;;7.43;2.78;;;;;;;;;;5009947;28;20030;-77
2021/12/09 02:36:03;;;;;;;7.90;4.32;;;;;;;;;;4979559;28;20437;-77
2021/12/09 02:38:29;;;;;;;8.60;2.78;;;;;;;;;;4995056;28;20065;-77
2021/12/09 02:40:56;;;;;;;4.32;2.42;;;;;;;;;;5005218;28;20074;-76
2021/12/09 02:43:30;;;;;;;7.25;2.40;;;;;;;;;;5010126;28;20027;-76
2021/12/09 02:45:57;;;;;;;4.75;2.20;;;;;;;;;;5010870;28;20049;-76
2021/12/09 02:48:24;;;;;;;6.30;2.65;;;;;;;;;;4995813;28;20022;-76
2021/12/09 02:50:51;;;;;;;6.03;2.63;;;;;;;;;;5010422;28;20085;-76
2021/12/09 02:53:18;;;;;;;12.05;3.17;;;;;;;;;;5004839;28;20110;-76
2021/12/09 02:55:44;;;;;;;8.32;2.88;;;;;;;;;;4999672;28;20515;-76
2021/12/09 02:58:11;;;;;;;5.88;2.65;;;;;;;;;;5006225;28;20045;-77
2021/12/09 03:01:00;;;;;;;7.30;3.72;;;;;;;;;;5010288;28;20034;-76
2021/12/09 03:03:27;;;;;;;9.95;2.95;;;;;;;;;;4992056;28;20041;-77
2021/12/09 03:05:55;;;;;;;9.70;3.63;;;;;;;;;;5007391;28;20421;-76
2021/12/09 03:08:32;;;;;;;6.72;2.65;;;;;;;;;;5012186;28;20104;-79
2021/12/09 03:10:59;;;;;;;7.50;2.65;;;;;;;;;;5009867;28;20034;-76
2021/12/09 03:13:25;;;;;;;5.53;2.55;;;;;;;;;;5003526;28;20076;-77
2021/12/09 03:15:51;;;;;;;9.10;2.75;;;;;;;;;;5013402;28;20480;-77
2021/12/09 03:18:18;;;;;;;6.07;2.30;;;;;;;;;;5011771;28;20030;-77
2021/12/09 03:20:44;;;;;;;9.48;2.67;;;;;;;;;;5007143;28;20439;-75
2021/12/09 03:23:10;;;;;;;7.35;2.13;;;;;;;;;;5004515;28;20034;-76
2021/12/09 03:25:36;;;;;;;3.47;2.30;;;;;;;;;;5013415;28;20029;-74
2021/12/09 03:28:02;;;;;;;8.05;2.83;;;;;;;;;;5000851;28;20029;-76
2021/12/09 03:30:28;;;;;;;6.28;2.65;;;;;;;;;;5010562;28;20106;-76
2021/12/09 03:32:56;;;;;;;7.25;3.35;;;;;;;;;;5010665;28;20098;-77
2021/12/09 03:35:23;;;;;;;8.52;2.95;;;;;;;;;;4998265;28;20034;-75
2021/12/09 03:37:49;;;;;;;4.90;2.15;;;;;;;;;;4998373;28;20059;-77
2021/12/09 03:40:16;;;;;;;5.88;2.17;;;;;;;;;;5014434;28;20441;-78
2021/12/09 03:42:43;;;;;;;4.78;2.55;;;;;;;;;;5007987;28;20089;-76
2021/12/09 03:45:10;;;;;;;8.60;4.10;;;;;;;;;;4997007;28;20477;-76
2021/12/09 03:47:37;;;;;;;7.43;3.33;;;;;;;;;;5005162;28;20449;-74
2021/12/09 03:50:05;;;;;;;9.77;2.85;;;;;;;;;;5012243;28;20113;-76
2021/12/09 03:52:31;;;;;;;6.53;2.50;;;;;;;;;;5007776;28;20437;-76
2021/12/09 03:54:57;;;;;;;6.57;2.17;;;;;;;;;;5006715;28;20033;-76
2021/12/09 03:57:23;;;;;;;8.07;2.65;;;;;;;;;;5005233;28;20038;-76
2021/12/09 03:59:49;;;;;;;5.97;2.08;;;;;;;;;;5006688;28;20065;-76
2021/12/09 04:02:16;;;;;;;4.60;2.08;;;;;;;;;;5014295;28;20484;-76
2021/12/09 04:04:42;;;;;;;5.60;2.00;;;;;;;;;;5006528;28;20109;-75
2021/12/09 04:07:09;;;;;;;4.25;2.20;;;;;;;;;;5003208;28;20027;-76
2021/12/09 04:09:35;;;;;;;4.32;2.75;;;;;;;;;;5011543;28;20030;-76
2021/12/09 04:12:02;;;;;;;2.70;1.90;;;;;;;;;;5001005;28;20026;-75
2021/12/09 04:14:28;;;;;;;7.30;2.15;;;;;;;;;;5008188;28;20054;-76
2021/12/09 04:16:56;;;;;;;6.95;2.15;;;;;;;;;;5006040;28;20499;-75
2021/12/09 04:19:22;;;;;;;9.18;2.78;;;;;;;;;;5012762;28;20388;-75
2021/12/09 04:21:48;;;;;;;6.72;2.50;;;;;;;;;;4998757;28;20105;-76
2021/12/09 04:24:16;;;;;;;7.88;2.45;;;;;;;;;;5014113;28;20030;-76
2021/12/09 04:26:46;;;;;;;10.75;3.60;;;;;;;;;;4998660;28;20022;-76
2021/12/09 04:29:13;;;;;;;3.58;2.17;;;;;;;;;;5008330;28;20038;-76
2021/12/09 04:31:40;;;;;;;10.63;2.75;;;;;;;;;;4998685;28;20034;-76
2021/12/09 04:34:06;;;;;;;7.00;2.30;;;;;;;;;;5012795;28;20026;-75
2021/12/09 04:36:32;;;;;;;2.97;2.05;;;;;;;;;;5013766;28;20033;-76
2021/12/09 04:38:58;;;;;;;7.43;1.90;;;;;;;;;;5004023;28;20548;-77
2021/12/09 04:41:24;;;;;;;6.50;2.30;;;;;;;;;;5009395;28;20022;-76
2021/12/09 04:43:51;;;;;;;5.80;2.35;;;;;;;;;;5012368;28;20030;-75
2021/12/09 04:46:17;;;;;;;7.35;2.38;;;;;;;;;;4999624;28;20033;-78
2021/12/09 04:48:43;;;;;;;10.05;2.72;;;;;;;;;;5009867;28;20029;-75
2021/12/09 04:51:10;;;;;;;11.60;3.20;;;;;;;;;;5000874;28;20052;-76
2021/12/09 04:53:36;;;;;;;5.00;2.40;;;;;;;;;;5010551;28;20033;-76
2021/12/09 04:56:05;;;;;;;6.78;2.17;;;;;;;;;;4986496;28;20026;-75
2021/12/09 04:58:32;;;;;;;6.50;2.42;;;;;;;;;;5007490;28;20062;-77
2021/12/09 05:00:59;;;;;;;4.75;1.90;;;;;;;;;;5006374;28;20032;-76
2021/12/09 05:03:25;;;;;;;8.35;2.60;;;;;;;;;;4999984;28;20026;-76
2021/12/09 05:05:53;;;;;;;8.60;2.95;;;;;;;;;;5010483;28;20480;-75
2021/12/09 05:08:20;;;;;;;10.52;2.70;;;;;;;;;;5014578;28;20080;-77
2021/12/09 05:13:18;;;;;;;6.15;2.42;;;;;;;;;;5007546;28;20038;-77
2021/12/09 05:15:44;;;;;;;3.90;2.10;;;;;;;;;;5012040;28;20084;-76
2021/12/09 05:18:11;;;;;;;4.15;2.60;;;;;;;;;;5009304;28;20045;-75
2021/12/09 05:20:37;;;;;;;8.10;2.75;;;;;;;;;;4994990;28;20031;-77
2021/12/09 05:23:04;;;;;;;7.63;2.60;;;;;;;;;;5006746;28;20101;-76
2021/12/09 05:25:30;;;;;;;9.35;3.40;;;;;;;;;;4999013;28;20062;-75
2021/12/09 05:27:56;;;;;;;11.93;3.20;;;;;;;;;;5009997;28;20607;-76
2021/12/09 05:30:37;;;;;;;5.72;2.65;;;;;;;;;;5000357;28;20026;-76
2021/12/09 05:33:04;;;;;;;9.88;2.78;;;;;;;;;;5002360;28;20424;-77
2021/12/09 05:35:30;;;;;;;10.02;2.40;;;;;;;;;;5004063;28;20033;-76
2021/12/09 05:37:56;;;;;;;11.50;3.05;;;;;;;;;;5010239;28;20455;-76
2021/12/09 05:40:22;;;;;;;7.47;2.53;;;;;;;;;;5000482;28;20106;-76
2021/12/09 05:42:48;;;;;;;9.13;2.40;;;;;;;;;;5004306;28;20026;-76
2021/12/09 05:45:15;;;;;;;5.97;2.15;;;;;;;;;;5007899;28;20058;-76
2021/12/09 05:47:41;;;;;;;9.82;2.65;;;;;;;;;;5005490;28;20339;-76
2021/12/09 05:50:08;;;;;;;6.45;2.40;;;;;;;;;;5011197;28;20128;-75
2021/12/09 05:52:34;;;;;;;5.18;2.30;;;;;;;;;;5013169;28;20480;-75
2021/12/09 05:55:00;;;;;;;14.73;4.78;;;;;;;;;;5002805;28;20273;-76
2021/12/09 05:57:26;;;;;;;8.57;2.75;;;;;;;;;;5004640;28;20037;-75
2021/12/09 05:59:54;;;;;;;10.50;2.60;;;;;;;;;;5006383;28;20438;-76
2021/12/09 06:02:21;;;;;;;6.72;2.92;;;;;;;;;;5012313;28;20049;-75
2021/12/09 06:04:47;;;;;;;10.38;3.40;;;;;;;;;;5013016;28;20468;-76
2021/12/09 06:07:14;;;;;;;7.22;2.83;;;;;;;;;;5013636;28;20026;-76
2021/12/09 06:09:40;;;;;;;8.60;2.72;;;;;;;;;;4997567;28;20035;-76
2021/12/09 06:12:07;;;;;;;11.43;3.45;;;;;;;;;;5013590;28;20385;-76
2021/12/09 06:14:33;;;;;;;7.55;2.78;;;;;;;;;;5012562;28;20028;-76
2021/12/09 06:16:59;;;;;;;6.97;3.25;;;;;;;;;;5003209;28;20026;-76
2021/12/09 06:19:25;;;;;;;8.20;2.40;;;;;;;;;;5009505;28;20034;-76
2021/12/09 06:21:51;;;;;;;8.35;3.80;;;;;;;;;;4999320;28;20030;-76
2021/12/09 06:24:18;;;;;;;5.07;2.67;;;;;;;;;;5007321;28;20083;-76
2021/12/09 06:26:45;;;;;;;4.53;2.80;;;;;;;;;;5005515;28;20026;-78
2021/12/09 06:29:11;;;;;;;8.48;2.38;;;;;;;;;;5014642;28;20026;-76
2021/12/09 06:31:38;;;;;;;11.18;2.72;;;;;;;;;;5015755;28;20030;-78
2021/12/09 06:34:04;;;;;;;12.30;3.17;;;;;;;;;;5008001;28;20037;-76
2021/12/09 06:36:30;;;;;;;7.63;3.00;;;;;;;;;;5017457;28;20037;-76
2021/12/09 06:38:56;;;;;;;9.02;3.28;;;;;;;;;;5017299;28;20369;-77
2021/12/09 06:41:22;;;;;;;8.95;2.80;;;;;;;;;;5014613;28;20033;-76
2021/12/09 06:43:48;;;;;;;11.20;4.20;;;;;;;;;;5012895;28;20389;-76
2021/12/09 06:46:14;;;;;;;8.93;3.00;;;;;;;;;;5003508;28;20025;-76
2021/12/09 06:48:41;;;;;;;7.85;2.67;;;;;;;;;;5009193;28;20552;-76
2021/12/09 06:51:07;;;;;;;8.80;2.63;;;;;;;;;;5013512;28;20045;-75
2021/12/09 06:53:34;;;;;;;7.47;2.78;;;;;;;;;;5011733;28;20030;-77
2021/12/09 06:56:00;;;;;;;7.55;2.55;;;;;;;;;;5001530;28;20438;-76
2021/12/09 06:58:26;;;;;;;11.77;2.55;;;;;;;;;;5013866;28;20747;-76
2021/12/09 07:00:54;;;;;;;9.82;2.47;;;;;;;;;;5015965;28;20476;-77
2021/12/09 07:03:21;;;;;;;8.10;2.67;;;;;;;;;;5018828;28;20029;-76
2021/12/09 07:05:48;;;;;;;6.65;2.70;;;;;;;;;;5008331;28;20032;-76
2021/12/09 07:08:14;;;;;;;7.20;2.40;;;;;;;;;;4990097;28;20033;-77
2021/12/09 07:10:40;;;;;;;13.27;2.78;;;;;;;;;;5001797;28;20031;-76
2021/12/09 07:13:06;;;;;;;6.65;2.42;;;;;;;;;;5009946;28;20056;-75
2021/12/09 07:15:33;;;;;;;12.07;3.05;;;;;;;;;;5015832;28;20378;-75
2021/12/09 07:18:00;;;;;;;6.22;2.55;;;;;;;;;;5018044;28;20049;-76
2021/12/09 07:20:27;;;;;;;7.72;2.63;;;;;;;;;;5018012;28;20026;-76
2021/12/09 07:22:54;;;;;;;4.68;2.10;;;;;;;;;;5017902;28;20022;-75
2021/12/09 07:25:20;;;;;;;10.55;4.55;;;;;;;;;;5010326;28;20069;-75
2021/12/09 07:27:47;;;;;;;9.35;2.72;;;;;;;;;;4985679;28;20370;-76
2021/12/09 07:30:14;;;;;;;13.35;3.10;;;;;;;;;;5006125;28;20030;-76
2021/12/09 07:32:40;;;;;;;7.70;2.80;;;;;;;;;;5016449;28;20040;-75
2021/12/09 07:35:07;;;;;;;13.57;3.85;;;;;;;;;;5017646;28;20034;-76
2021/12/09 07:37:33;;;;;;;11.10;3.15;;;;;;;;;;5017122;28;20108;-77
2021/12/09 07:40:00;;;;;;;9.77;4.38;;;;;;;;;;5017010;28;20026;-75
2021/12/09 07:42:26;;;;;;;5.40;2.83;;;;;;;;;;5007999;28;20370;-76
2021/12/09 07:44:52;;;;;;;5.90;2.58;;;;;;;;;;5004001;28;20413;-76
2021/12/09 07:47:18;;;;;;;9.68;2.40;;;;;;;;;;5010298;28;20496;-75
2021/12/09 07:49:45;;;;;;;6.68;2.85;;;;;;;;;;5001885;28;20097;-75
2021/12/09 07:52:11;;;;;;;7.75;2.67;;;;;;;;;;5007182;28;20076;-76
2021/12/09 07:54:37;;;;;;;8.02;2.75;;;;;;;;;;4999947;28;20027;-74
2021/12/09 07:57:03;;;;;;;5.97;3.38;;;;;;;;;;5006246;28;20049;-77
2021/12/09 07:59:29;;;;;;;8.38;2.97;;;;;;;;;;5010574;28;20038;-75
2021/12/09 08:01:56;;;;;;;9.98;3.10;;;;;;;;;;4999189;28;20054;-77
2021/12/09 08:04:22;;;;;;;6.45;2.30;;;;;;;;;;5004806;28;20053;-78
2021/12/09 08:06:48;;;;;;;6.30;2.70;;;;;;;;;;4984279;28;20030;-76
2021/12/09 08:09:14;;;;;;;14.07;2.78;;;;;;;;;;4985778;28;20053;-76
2021/12/09 08:11:42;;;;;;;6.35;2.38;;;;;;;;;;4994364;28;20030;-74
2021/12/09 08:14:11;;;;;;;9.32;2.65;;;;;;;;;;5005172;28;20034;-75
2021/12/09 08:16:38;;;;;;;6.80;2.38;;;;;;;;;;4990645;28;20080;-80
2021/12/09 08:19:08;;;;;;;9.40;3.08;;;;;;;;;;4988631;28;20088;-77
2021/12/09 08:21:36;;;;;;;10.02;4.05;;;;;;;;;;5001418;28;20022;-76
2021/12/09 08:24:08;;;;;;;4.60;2.63;;;;;;;;;;4984353;28;20504;-76
2021/12/09 08:26:35;;;;;;;4.75;2.78;;;;;;;;;;4990714;28;20122;-74
2021/12/09 08:29:02;;;;;;;11.25;4.22;;;;;;;;;;4990032;28;20501;-75
2021/12/09 08:31:29;;;;;;;9.07;2.72;;;;;;;;;;4989914;28;20031;-77
2021/12/09 08:33:56;;;;;;;10.18;3.53;;;;;;;;;;4989597;28;20030;-76
2021/12/09 08:36:22;;;;;;;4.15;2.13;;;;;;;;;;4990004;28;20030;-75
2021/12/09 08:38:48;;;;;;;13.35;4.10;;;;;;;;;;4998092;28;20113;-75
2021/12/09 08:41:17;;;;;;;9.85;3.10;;;;;;;;;;5000492;28;20038;-74
2021/12/09 08:43:43;;;;;;;8.60;3.40;;;;;;;;;;5004367;28;20026;-72
2021/12/09 08:46:09;;;;;;;13.35;3.47;;;;;;;;;;5016092;28;20041;-73
2021/12/09 08:48:35;;;;;;;8.65;2.63;;;;;;;;;;5006670;28;20050;-77
2021/12/09 08:51:01;;;;;;;11.30;3.50;;;;;;;;;;5003783;28;20051;-77
2021/12/09 08:53:27;;;;;;;12.48;3.00;;;;;;;;;;4997324;28;20034;-76
2021/12/09 08:55:53;;;;;;;8.73;2.72;;;;;;;;;;5006172;28;20097;-72
2021/12/09 08:58:20;;;;;;;6.57;3.08;;;;;;;;;;4985490;28;20089;-73
2021/12/09 09:00:46;;;;;;;9.98;2.88;;;;;;;;;;5003822;28;20026;-72
2021/12/09 09:03:13;;;;;;;6.13;2.50;;;;;;;;;;4997852;28;20031;-76
2021/12/09 09:05:40;;;;;;;5.53;2.42;;;;;;;;;;5001624;28;20465;-78
2021/12/09 09:08:06;;;;;;;7.05;3.03;;;;;;;;;;4998838;28;20061;-74
2021/12/09 09:10:34;;;;;;;9.63;3.55;;;;;;;;;;5025155;28;20031;-77
2021/12/09 09:13:00;;;;;;;11.40;3.45;;;;;;;;;;5002305;28;20034;-76
2021/12/09 09:15:28;;;;;;;10.02;3.92;;;;;;;;;;5010306;28;20052;-74
2021/12/09 09:17:54;;;;;;;7.43;2.63;;;;;;;;;;4993711;28;20022;-74
2021/12/09 09:20:21;;;;;;;7.55;2.75;;;;;;;;;;5015354;28;20615;-74
2021/12/09 09:22:47;;;;;;;7.28;2.70;;;;;;;;;;5003878;28;20029;-74
2021/12/09 09:25:17;;;;;;;9.27;2.65;;;;;;;;;;5004459;28;20018;-73
2021/12/09 09:27:43;;;;;;;5.05;2.33;;;;;;;;;;5014326;28;20025;-75
2021/12/09 09:30:13;;;;;;;6.18;2.67;;;;;;;;;;5022753;28;20033;-78
2021/12/09 09:32:40;;;;;;;12.80;2.97;;;;;;;;;;5022957;28;20022;-76
2021/12/09 09:35:06;;;;;;;8.27;2.65;;;;;;;;;;5015338;28;20030;-75
2021/12/09 09:37:32;;;;;;;7.90;2.35;;;;;;;;;;5019683;28;20081;-77
2021/12/09 09:39:59;;;;;;;8.63;2.25;;;;;;;;;;5019348;28;20046;-72
2021/12/09 09:42:55;;;;;;;10.23;2.83;;;;;;;;;;5009790;28;20049;-73
2021/12/09 09:45:20;;;;;;;25.33;3.38;;;;;;;;;;5004719;28;20057;-77
2021/12/09 09:47:46;;;;;;;9.55;2.85;;;;;;;;;;5017403;28;20068;-77
2021/12/09 09:50:12;;;;;;;10.10;2.28;;;;;;;;;;5019188;28;20046;-78
2021/12/09 09:52:40;;;;;;;8.70;2.30;;;;;;;;;;5012340;28;20034;-76
2021/12/09 09:55:09;;;;;;;5.13;2.47;;;;;;;;;;5013540;28;20072;-78
2021/12/09 09:57:36;;;;;;;8.30;2.42;;;;;;;;;;5002231;28;20034;-77
2021/12/09 10:00:05;;;;;;;9.40;2.20;;;;;;;;;;4994618;28;20038;-73
2021/12/09 10:02:31;;;;;;;5.60;2.10;;;;;;;;;;5001681;28;20034;-73
2021/12/09 10:05:01;;;;;;;4.95;2.08;;;;;;;;;;5013959;28;20018;-72
2021/12/09 10:07:27;;;;;;;3.05;2.00;;;;;;;;;;4981522;28;20023;-79
2021/12/09 10:09:54;;;;;;;5.78;2.60;;;;;;;;;;4987866;28;20404;-77
2021/12/09 10:12:20;;;;;;;5.45;2.22;;;;;;;;;;5011948;28;20477;-77
2021/12/09 10:14:48;;;;;;;3.65;1.90;;;;;;;;;;4983492;28;20037;-72
2021/12/09 10:17:20;;;;;;;5.13;2.22;;;;;;;;;;4999107;28;20045;-77
2021/12/09 10:19:50;;;;;;;5.13;1.98;;;;;;;;;;5006836;28;20033;-76
2021/12/09 10:22:21;;;;;;;5.57;1.77;;;;;;;;;;5027130;28;20031;-72
2021/12/09 10:24:49;;;;;;;3.10;1.80;;;;;;;;;;5012032;28;20027;-78
2021/12/09 10:27:23;;;;;;;4.78;2.47;;;;;;;;;;5015766;28;20077;-77
2021/12/09 10:29:51;;;;;;;2.35;1.80;;;;;;;;;;5005672;28;20033;-73
2021/12/09 10:32:30;;;;;;;2.08;1.40;;;;;;;;;;5025398;28;20436;-73
2021/12/09 10:34:56;;;;;;;4.72;1.73;;;;;;;;;;5025232;28;20476;-72
2021/12/09 10:37:27;;;;;;;2.90;1.75;;;;;;;;;;5025842;28;20040;-74
2021/12/09 10:39:57;;;;;;;3.08;1.70;;;;;;;;;;5014526;28;20105;-78
2021/12/09 10:42:25;;;;;;;8.93;2.15;;;;;;;;;;4999340;28;20048;-73
2021/12/09 10:45:00;;;;;;;2.53;1.75;;;;;;;;;;5002899;28;20098;-73
2021/12/09 10:50:20;;;;;;;2.88;1.60;;;;;;;;;;5005023;28;20053;-73
2021/12/09 10:55:48;;;;;;;2.20;1.50;;;;;;;;;;4982694;28;20039;-76
2021/12/09 10:58:16;;;;;;;2.53;1.55;;;;;;;;;;4991017;28;20030;-75
2021/12/09 11:00:52;;;;;;;1.83;1.65;;;;;;;;;;5023493;28;20056;-73
2021/12/09 11:03:43;;;;;;;3.28;2.08;;;;;;;;;;5021723;28;20485;-78
2021/12/09 11:06:10;;;;;;;2.50;1.70;;;;;;;;;;5005045;28;20038;-75
2021/12/09 11:08:49;;;;;;;4.45;2.83;;;;;;;;;;5003113;28;20038;-72
2021/12/09 11:11:17;;;;;;;1.80;1.70;;;;;;;;;;5018428;28;20453;-73
2021/12/09 11:13:48;;;;;;;2.63;2.08;;;;;;;;;;5029110;28;20426;-73
2021/12/09 11:16:23;;;;;;;2.92;2.00;;;;;;;;;;5024212;28;20022;-77
2021/12/09 11:18:49;;;;;;;1.40;1.30;;;;;;;;;;5017697;28;20030;-74
2021/12/09 11:21:29;;;;;;;2.10;1.75;;;;;;;;;;5021413;28;20031;-75
2021/12/09 11:24:08;;;;;;;1.73;1.55;;;;;;;;;;5025717;28;20056;-77
2021/12/09 11:26:43;;;;;;;2.08;1.33;;;;;;;;;;5022116;28;20478;-76
2021/12/09 11:29:18;;;;;;;1.00;1.00;;;;;;;;;;5025691;28;20029;-77
2021/12/09 11:31:56;;;;;;;1.10;1.10;;;;;;;;;;5024167;28;20497;-75
2021/12/09 11:34:26;;;;;;;1.45;1.35;;;;;;;;;;5020539;28;20030;-73
2021/12/09 11:36:56;;;;;;;1.30;1.20;;;;;;;;;;4991537;28;20038;-74
2021/12/09 11:39:27;;;;;;;2.58;2.28;;;;;;;;;;5008036;28;20022;-77
2021/12/09 11:41:54;;;;;;;1.33;1.17;;;;;;;;;;4995517;28;20019;-76
2021/12/09 11:44:20;;;;;;;1.27;1.27;;;;;;;;;;4983359;28;20077;-75
2021/12/09 11:46:47;;;;;;;1.30;1.30;;;;;;;;;;4982657;28;20023;-73
2021/12/09 11:49:16;;;;;;;2.22;1.50;;;;;;;;;;4983512;28;20434;-73
2021/12/09 11:51:42;;;;;;;1.98;1.30;;;;;;;;;;5011847;28;20061;-76
2021/12/09 11:54:09;;;;;;;1.10;1.10;;;;;;;;;;5023738;28;20055;-76
2021/12/09 11:56:58;;;;;;;1.25;1.20;;;;;;;;;;5016522;28;20061;-73
2021/12/09 12:11:07;;;;;;;1.27;1.27;;;;;;;;;;5020434;28;20040;-76
2021/12/09 12:13:56;;;;;;;2.03;1.40;;;;;;;;;;4985032;28;20050;-76
2021/12/09 12:16:43;;;;;;;2.17;1.27;;;;;;;;;;4985265;28;20478;-74
2021/12/09 12:19:26;;;;;;;1.60;1.50;;;;;;;;;;5022667;28;20480;-75
2021/12/09 12:22:29;;;;;;;1.50;1.40;;;;;;;;;;5012413;28;20041;-73
2021/12/09 12:38:11;;;;;;;4.15;2.22;;;;;;;;;;4984541;28;20544;-77
2021/12/09 12:40:51;;;;;;;2.35;1.73;;;;;;;;;;4999406;28;20027;-75
2021/12/09 12:43:30;;;;;;;2.22;1.80;;;;;;;;;;4984000;28;20023;-75
2021/12/09 12:54:34;;;;;;;2.85;1.80;;;;;;;;;;4970144;28;20049;-74
2021/12/09 12:57:01;;;;;;;;;;;;;;;;;;4989849;28;20038;-76
2021/12/09 12:59:32;;;;;;;5.28;2.70;;;;;;;;;;4983408;28;19922;-77
2021/12/09 13:02:08;;;;;;;2.40;2.00;;;;;;;;;;4989776;28;20073;-74
2021/12/09 13:04:51;;;;;;;7.55;3.95;;;;;;;;;;5002244;28;20082;-79
2021/12/09 13:10:20;;;;;;;5.13;4.32;;;;;;;;;;4994959;28;20048;-74
2021/12/09 13:12:56;;;;;;;3.47;2.53;;;;;;;;;;4997250;28;20038;-74
2021/12/09 13:15:31;;;;;;;3.35;3.03;;;;;;;;;;4992815;28;20493;-76
2021/12/09 13:18:02;;;;;;;3.53;2.63;;;;;;;;;;4977130;28;20386;-78
2021/12/09 13:20:32;;;;;;;4.15;2.78;;;;;;;;;;4977005;28;20109;-76
2021/12/09 13:23:25;;;;;;;9.18;5.35;;;;;;;;;;4996439;28;20037;-77
2021/12/09 13:26:20;;;;;;;11.27;5.75;;;;;;;;;;4997894;28;20054;-76
2021/12/09 13:28:57;;;;;;;11.88;6.15;;;;;;;;;;5000612;28;20018;-78
2021/12/09 13:32:02;;;;;;;15.63;7.15;;;;;;;;;;4989200;28;20071;-78
2021/12/09 13:34:41;;;;;;;11.55;8.02;;;;;;;;;;4996248;28;20117;-74
2021/12/09 13:40:39;;;;;;;6.38;4.72;;;;;;;;;;4997739;28;20041;-74
2021/12/09 13:48:12;;;;;;;13.02;3.38;;;;;;;;;;4989660;28;20058;-74
2021/12/09 13:50:51;;;;;;;4.43;3.63;;;;;;;;;;4981507;28;20059;-74
2021/12/09 13:56:03;;;;;;;5.18;3.80;;;;;;;;;;4984270;28;20037;-77
2021/12/09 13:58:29;;;;;;;11.73;3.35;;;;;;;;;;4980586;28;20038;-74
2021/12/09 14:00:55;;;;;;;5.22;3.42;;;;;;;;;;4981546;28;20026;-77
2021/12/09 14:03:23;;;;;;;4.60;3.65;;;;;;;;;;4992165;28;20029;-77
2021/12/09 14:06:03;;;;;;;9.15;4.10;;;;;;;;;;4978593;28;20042;-76
2021/12/09 14:08:45;;;;;;;9.25;7.28;;;;;;;;;;4993479;28;20446;-78
2021/12/09 14:11:16;;;;;;;5.63;3.80;;;;;;;;;;4981348;28;20424;-73
2021/12/09 14:13:47;;;;;;;8.32;4.10;;;;;;;;;;4994402;28;20516;-74
2021/12/09 14:16:36;;;;;;;10.65;5.65;;;;;;;;;;4979651;28;20027;-77
2021/12/09 14:21:49;;;;;;;6.03;3.72;;;;;;;;;;5016996;28;20030;-75
2021/12/09 14:24:22;;;;;;;5.82;4.20;;;;;;;;;;5019470;28;20369;-74
2021/12/09 14:26:51;;;;;;;7.25;5.15;;;;;;;;;;5023139;28;20068;-75
2021/12/09 14:29:17;;;;;;;9.52;4.55;;;;;;;;;;5009844;28;20031;-76
2021/12/09 14:31:50;;;;;;;10.75;6.53;;;;;;;;;;5003662;28;20101;-76
2021/12/09 14:34:17;;;;;;;8.70;5.05;;;;;;;;;;4990120;28;20038;-74
2021/12/09 14:36:45;;;;;;;9.63;5.65;;;;;;;;;;4994300;28;20041;-74
2021/12/09 14:39:19;;;;;;;7.82;4.82;;;;;;;;;;5002387;28;20037;-75
2021/12/09 14:41:46;;;;;;;9.35;5.55;;;;;;;;;;4992787;28;20030;-76
2021/12/09 14:44:14;;;;;;;13.60;5.95;;;;;;;;;;4982764;28;20131;-77
2021/12/09 14:46:42;;;;;;;9.93;6.10;;;;;;;;;;4982831;28;20022;-75
2021/12/09 14:49:34;;;;;;;12.40;7.40;;;;;;;;;;5000940;28;20128;-77
2021/12/09 14:52:02;;;;;;;9.65;5.90;;;;;;;;;;4976422;28;20054;-76
2021/12/09 14:54:28;;;;;;;8.75;5.80;;;;;;;;;;4983562;28;20034;-78
2021/12/09 14:57:23;;;;;;;13.07;6.57;;;;;;;;;;4987502;28;20038;-74
2021/12/09 14:59:50;;;;;;;8.13;4.70;;;;;;;;;;4986820;28;20042;-78
2021/12/09 15:02:23;;;;;;;7.75;4.57;;;;;;;;;;4997472;28;20026;-76
2021/12/09 15:04:52;;;;;;;6.80;4.57;;;;;;;;;;4989394;28;20477;-76
2021/12/09 15:07:50;;;;;;;5.93;4.38;;;;;;;;;;4985151;28;20046;-78
2021/12/09 15:10:18;;;;;;;6.90;4.18;;;;;;;;;;5000489;28;20023;-75
2021/12/09 15:12:48;;;;;;;4.70;3.30;;;;;;;;;;4988152;28;20086;-73
2021/12/09 15:15:34;;;;;;;7.03;3.25;;;;;;;;;;4984609;28;20039;-75
2021/12/09 15:18:02;;;;;;;;;;;;;;;;;;4998526;28;20046;-76
2021/12/09 15:20:34;;;;;;;4.78;2.97;;;;;;;;;;4998410;28;19920;-75
2021/12/09 15:23:11;;;;;;;5.53;3.03;;;;;;;;;;4995807;28;20463;-76
2021/12/09 15:25:41;;;;;;;3.75;2.50;;;;;;;;;;5003730;28;20484;-77
2021/12/09 15:28:08;;;;;;;3.42;2.75;;;;;;;;;;5018261;28;20030;-75
2021/12/09 15:30:38;;;;;;;4.40;3.42;;;;;;;;;;4999705;28;20025;-76
2021/12/09 15:33:05;;;;;;;5.22;2.72;;;;;;;;;;4986514;28;20072;-76
2021/12/09 15:35:32;;;;;;;5.10;3.85;;;;;;;;;;5001929;28;20054;-74
2021/12/09 15:38:00;;;;;;;6.68;3.67;;;;;;;;;;4997262;28;20102;-75
2021/12/09 15:40:26;;;;;;;4.82;2.88;;;;;;;;;;4994326;28;20018;-74
2021/12/09 15:43:13;;;;;;;4.90;3.40;;;;;;;;;;4988008;28;20033;-74
2021/12/09 15:45:39;;;;;;;10.05;5.00;;;;;;;;;;5002318;28;20027;-77
2021/12/09 15:48:16;;;;;;;5.07;2.75;;;;;;;;;;4999945;28;20023;-77
2021/12/09 15:50:42;;;;;;;8.88;3.50;;;;;;;;;;4990280;28;20050;-74